sensor_id;sensor_type;location;lat;lon;timestamp;temperature;humidity
6792;DHT22;3433;48.730;9.108;2023-05-10T00:01:07;15.40;99.90
6792;DHT22;3433;48.730;9.108;2023-05-10T00:03:34;15.50;99.90
6792;DHT22;3433;48.730;9.108;2023-05-10T00:06:01;15.40;99.90
6792;DHT22;3433;48.730;9.108;2023-05-10T00:08:28;15.40;99.90
6792;DHT22;3433;48.730;9.108;2023-05-10T00:10:56;15.40;99.90
6792;DHT22;3433;48.730;9.108;2023-05-10T00:13:23;15.50;99.90
6792;DHT22;3433;48.730;9.108;2023-05-10T00:15:50;15.30;99.90
6792;DHT22;3433;48.730;9.108;2023-05-10T00:18:17;15.20;99.90
6792;DHT22;3433;48.730;9.108;2023-05-10T00:20:44;15.20;99.90
6792;DHT22;3433;48.730;9.108;2023-05-10T00:23:11;15.20;99.90
6792;DHT22;3433;48.730;9.108;2023-05-10T00:25:38;15.20;99.90
6792;DHT22;3433;48.730;9.108;2023-05-10T00:28:06;15.20;99.90
6792;DHT22;3433;48.730;9.108;2023-05-10T00:30:33;15.20;99.90
6792;DHT22;3433;48.730;9.108;2023-05-10T00:33:00;15.20;99.90
6792;DHT22;3433;48.730;9.108;2023-05-10T00:35:27;15.10;99.90
6792;DHT22;3433;48.730;9.108;2023-05-10T00:37:54;15.10;99.90
6792;DHT22;3433;48.730;9.108;2023-05-10T00:40:21;15.20;99.90
6792;DHT22;3433;48.730;9.108;2023-05-10T00:42:48;15.10;99.90
6792;DHT22;3433;48.730;9.108;2023-05-10T00:45:16;15.10;99.90
6792;DHT22;3433;48.730;9.108;2023-05-10T00:47:43;15.00;99.90
6792;DHT22;3433;48.730;9.108;2023-05-10T00:50:10;15.10;99.90
6792;DHT22;3433;48.730;9.108;2023-05-10T00:52:37;15.00;99.90
6792;DHT22;3433;48.730;9.108;2023-05-10T00:55:05;15.00;99.90
6792;DHT22;3433;48.730;9.108;2023-05-10T00:57:32;15.00;99.90
6792;DHT22;3433;48.730;9.108;2023-05-10T00:59:59;14.90;99.90
6792;DHT22;3433;48.730;9.108;2023-05-10T01:02:27;14.90;99.90
6792;DHT22;3433;48.730;9.108;2023-05-10T01:04:55;14.90;99.90
6792;DHT22;3433;48.730;9.108;2023-05-10T01:07:21;14.90;99.90
6792;DHT22;3433;48.730;9.108;2023-05-10T01:09:48;14.90;99.90
6792;DHT22;3433;48.730;9.108;2023-05-10T01:12:18;14.90;99.90
6792;DHT22;3433;48.730;9.108;2023-05-10T01:14:45;14.90;99.90
6792;DHT22;3433;48.730;9.108;2023-05-10T01:17:12;14.90;99.90
6792;DHT22;3433;48.730;9.108;2023-05-10T01:19:41;14.80;99.90
6792;DHT22;3433;48.730;9.108;2023-05-10T01:22:20;14.80;99.90
6792;DHT22;3433;48.730;9.108;2023-05-10T01:25:10;14.80;99.90
6792;DHT22;3433;48.730;9.108;2023-05-10T01:27:57;14.70;99.90
6792;DHT22;3433;48.730;9.108;2023-05-10T01:33:32;14.70;99.90
6792;DHT22;3433;48.730;9.108;2023-05-10T01:36:05;14.80;99.90
6792;DHT22;3433;48.730;9.108;2023-05-10T01:38:38;14.70;99.90
6792;DHT22;3433;48.730;9.108;2023-05-10T01:41:13;14.70;99.90
6792;DHT22;3433;48.730;9.108;2023-05-10T01:43:50;14.70;99.90
6792;DHT22;3433;48.730;9.108;2023-05-10T01:46:27;14.70;99.90
6792;DHT22;3433;48.730;9.108;2023-05-10T01:48:58;14.70;99.90
6792;DHT22;3433;48.730;9.108;2023-05-10T01:51:29;14.70;99.90
6792;DHT22;3433;48.730;9.108;2023-05-10T01:54:00;14.70;99.90
6792;DHT22;3433;48.730;9.108;2023-05-10T01:56:30;14.70;99.90
6792;DHT22;3433;48.730;9.108;2023-05-10T01:58:59;14.70;99.90
6792;DHT22;3433;48.730;9.108;2023-05-10T02:01:27;14.70;99.90
6792;DHT22;3433;48.730;9.108;2023-05-10T02:03:57;14.70;99.90
6792;DHT22;3433;48.730;9.108;2023-05-10T02:06:26;14.70;99.90
6792;DHT22;3433;48.730;9.108;2023-05-10T02:08:53;14.60;99.90
6792;DHT22;3433;48.730;9.108;2023-05-10T02:11:20;14.60;99.90
6792;DHT22;3433;48.730;9.108;2023-05-10T02:13:49;14.60;99.90
6792;DHT22;3433;48.730;9.108;2023-05-10T02:16:18;14.50;99.90
6792;DHT22;3433;48.730;9.108;2023-05-10T02:18:49;14.60;99.90
6792;DHT22;3433;48.730;9.108;2023-05-10T02:21:19;14.60;99.90
6792;DHT22;3433;48.730;9.108;2023-05-10T02:23:47;14.50;99.90
6792;DHT22;3433;48.730;9.108;2023-05-10T02:26:16;14.50;99.90
6792;DHT22;3433;48.730;9.108;2023-05-10T02:28:43;14.50;99.90
6792;DHT22;3433;48.730;9.108;2023-05-10T02:31:11;14.50;99.90
6792;DHT22;3433;48.730;9.108;2023-05-10T02:33:39;14.50;99.90
6792;DHT22;3433;48.730;9.108;2023-05-10T02:36:07;14.50;99.90
6792;DHT22;3433;48.730;9.108;2023-05-10T02:38:37;14.50;99.90
6792;DHT22;3433;48.730;9.108;2023-05-10T02:41:05;14.50;99.90
6792;DHT22;3433;48.730;9.108;2023-05-10T02:43:35;14.50;99.90
6792;DHT22;3433;48.730;9.108;2023-05-10T02:46:02;14.50;99.90
6792;DHT22;3433;48.730;9.108;2023-05-10T02:48:29;14.50;99.90
6792;DHT22;3433;48.730;9.108;2023-05-10T02:51:00;14.50;99.90
6792;DHT22;3433;48.730;9.108;2023-05-10T02:53:31;14.50;99.90
6792;DHT22;3433;48.730;9.108;2023-05-10T02:56:05;14.50;99.90
6792;DHT22;3433;48.730;9.108;2023-05-10T02:58:36;14.50;99.90
6792;DHT22;3433;48.730;9.108;2023-05-10T03:01:03;14.50;99.90
6792;DHT22;3433;48.730;9.108;2023-05-10T03:03:30;14.50;99.90
6792;DHT22;3433;48.730;9.108;2023-05-10T03:05:57;14.40;99.90
6792;DHT22;3433;48.730;9.108;2023-05-10T03:08:24;14.40;99.90
6792;DHT22;3433;48.730;9.108;2023-05-10T03:11:18;14.40;99.90
6792;DHT22;3433;48.730;9.108;2023-05-10T03:13:56;14.40;99.90
6792;DHT22;3433;48.730;9.108;2023-05-10T03:16:32;14.40;99.90
6792;DHT22;3433;48.730;9.108;2023-05-10T03:19:12;14.40;99.90
6792;DHT22;3433;48.730;9.108;2023-05-10T03:21:47;14.40;99.90
6792;DHT22;3433;48.730;9.108;2023-05-10T03:24:16;14.40;99.90
6792;DHT22;3433;48.730;9.108;2023-05-10T03:26:47;14.40;99.90
6792;DHT22;3433;48.730;9.108;2023-05-10T03:29:19;14.40;99.90
6792;DHT22;3433;48.730;9.108;2023-05-10T03:31:46;14.40;99.90
6792;DHT22;3433;48.730;9.108;2023-05-10T03:34:13;14.40;99.90
6792;DHT22;3433;48.730;9.108;2023-05-10T03:36:40;14.30;99.90
6792;DHT22;3433;48.730;9.108;2023-05-10T03:39:07;14.30;99.90
6792;DHT22;3433;48.730;9.108;2023-05-10T03:41:34;14.40;99.90
6792;DHT22;3433;48.730;9.108;2023-05-10T03:44:02;14.40;99.90
6792;DHT22;3433;48.730;9.108;2023-05-10T03:46:29;14.40;99.90
6792;DHT22;3433;48.730;9.108;2023-05-10T03:48:56;14.40;99.90
6792;DHT22;3433;48.730;9.108;2023-05-10T03:51:23;14.40;99.90
6792;DHT22;3433;48.730;9.108;2023-05-10T03:53:53;14.40;99.90
6792;DHT22;3433;48.730;9.108;2023-05-10T03:56:20;14.30;99.90
6792;DHT22;3433;48.730;9.108;2023-05-10T03:58:47;14.40;99.90
6792;DHT22;3433;48.730;9.108;2023-05-10T04:01:15;14.40;99.90
6792;DHT22;3433;48.730;9.108;2023-05-10T04:03:42;14.30;99.90
6792;DHT22;3433;48.730;9.108;2023-05-10T04:06:09;14.30;99.90
6792;DHT22;3433;48.730;9.108;2023-05-10T04:08:37;14.40;99.90
6792;DHT22;3433;48.730;9.108;2023-05-10T04:11:07;14.40;99.90
6792;DHT22;3433;48.730;9.108;2023-05-10T04:13:34;14.30;99.90
6792;DHT22;3433;48.730;9.108;2023-05-10T04:16:01;14.40;99.90
6792;DHT22;3433;48.730;9.108;2023-05-10T04:18:29;14.30;99.90
6792;DHT22;3433;48.730;9.108;2023-05-10T04:20:56;14.30;99.90
6792;DHT22;3433;48.730;9.108;2023-05-10T04:23:23;14.30;99.90
6792;DHT22;3433;48.730;9.108;2023-05-10T04:25:50;13.90;99.90
6792;DHT22;3433;48.730;9.108;2023-05-10T04:28:41;14.10;99.90
6792;DHT22;3433;48.730;9.108;2023-05-10T04:31:09;14.10;99.90
6792;DHT22;3433;48.730;9.108;2023-05-10T04:33:38;14.10;99.90
6792;DHT22;3433;48.730;9.108;2023-05-10T04:36:05;14.20;99.90
6792;DHT22;3433;48.730;9.108;2023-05-10T04:38:32;14.20;99.90
6792;DHT22;3433;48.730;9.108;2023-05-10T04:41:04;14.20;99.90
6792;DHT22;3433;48.730;9.108;2023-05-10T04:43:31;14.20;99.90
6792;DHT22;3433;48.730;9.108;2023-05-10T04:45:58;14.20;99.90
6792;DHT22;3433;48.730;9.108;2023-05-10T04:48:25;14.30;99.90
6792;DHT22;3433;48.730;9.108;2023-05-10T04:50:53;14.30;99.90
6792;DHT22;3433;48.730;9.108;2023-05-10T04:53:20;14.30;99.90
6792;DHT22;3433;48.730;9.108;2023-05-10T04:55:47;14.20;99.90
6792;DHT22;3433;48.730;9.108;2023-05-10T04:58:17;14.30;99.90
6792;DHT22;3433;48.730;9.108;2023-05-10T05:00:44;14.30;99.90
6792;DHT22;3433;48.730;9.108;2023-05-10T05:03:11;14.30;99.90
6792;DHT22;3433;48.730;9.108;2023-05-10T05:05:38;14.30;99.90
6792;DHT22;3433;48.730;9.108;2023-05-10T05:08:06;14.30;99.90
6792;DHT22;3433;48.730;9.108;2023-05-10T05:10:33;14.30;99.90
6792;DHT22;3433;48.730;9.108;2023-05-10T05:13:00;14.30;99.90
6792;DHT22;3433;48.730;9.108;2023-05-10T05:15:27;14.40;99.90
6792;DHT22;3433;48.730;9.108;2023-05-10T05:17:54;14.40;99.90
6792;DHT22;3433;48.730;9.108;2023-05-10T05:20:20;14.40;99.90
6792;DHT22;3433;48.730;9.108;2023-05-10T05:22:47;14.40;99.90
6792;DHT22;3433;48.730;9.108;2023-05-10T05:25:16;14.50;99.90
6792;DHT22;3433;48.730;9.108;2023-05-10T05:27:43;14.40;99.90
6792;DHT22;3433;48.730;9.108;2023-05-10T05:30:10;14.50;99.90
6792;DHT22;3433;48.730;9.108;2023-05-10T05:32:38;14.50;99.90
6792;DHT22;3433;48.730;9.108;2023-05-10T05:35:05;14.50;99.90
6792;DHT22;3433;48.730;9.108;2023-05-10T05:37:32;14.50;99.90
6792;DHT22;3433;48.730;9.108;2023-05-10T05:40:02;14.50;99.90
6792;DHT22;3433;48.730;9.108;2023-05-10T05:42:31;14.50;99.90
6792;DHT22;3433;48.730;9.108;2023-05-10T05:44:58;14.50;99.90
6792;DHT22;3433;48.730;9.108;2023-05-10T05:47:25;14.50;99.90
6792;DHT22;3433;48.730;9.108;2023-05-10T05:49:55;14.60;99.90
6792;DHT22;3433;48.730;9.108;2023-05-10T05:52:22;14.50;99.90
6792;DHT22;3433;48.730;9.108;2023-05-10T05:54:51;14.60;99.90
6792;DHT22;3433;48.730;9.108;2023-05-10T05:57:44;14.70;99.90
6792;DHT22;3433;48.730;9.108;2023-05-10T06:00:14;14.70;99.90
6792;DHT22;3433;48.730;9.108;2023-05-10T06:02:41;14.80;99.90
6792;DHT22;3433;48.730;9.108;2023-05-10T06:05:08;14.80;99.90
6792;DHT22;3433;48.730;9.108;2023-05-10T06:07:35;14.80;99.90
6792;DHT22;3433;48.730;9.108;2023-05-10T06:10:03;14.80;99.90
6792;DHT22;3433;48.730;9.108;2023-05-10T06:12:31;14.90;99.90
6792;DHT22;3433;48.730;9.108;2023-05-10T06:17:35;14.90;99.90
6792;DHT22;3433;48.730;9.108;2023-05-10T06:20:24;15.00;99.90
6792;DHT22;3433;48.730;9.108;2023-05-10T06:26:18;14.90;99.90
6792;DHT22;3433;48.730;9.108;2023-05-10T06:28:46;15.00;99.90
6792;DHT22;3433;48.730;9.108;2023-05-10T06:31:17;15.00;99.90
6792;DHT22;3433;48.730;9.108;2023-05-10T06:34:02;14.90;99.90
6792;DHT22;3433;48.730;9.108;2023-05-10T06:36:43;14.90;99.90
6792;DHT22;3433;48.730;9.108;2023-05-10T06:39:24;14.90;99.90
6792;DHT22;3433;48.730;9.108;2023-05-10T06:41:51;15.00;99.90
6792;DHT22;3433;48.730;9.108;2023-05-10T06:44:20;15.10;99.90
6792;DHT22;3433;48.730;9.108;2023-05-10T06:47:01;15.00;99.90
6792;DHT22;3433;48.730;9.108;2023-05-10T06:49:49;15.00;99.90
6792;DHT22;3433;48.730;9.108;2023-05-10T06:52:16;15.10;99.90
6792;DHT22;3433;48.730;9.108;2023-05-10T06:54:43;15.10;99.90
6792;DHT22;3433;48.730;9.108;2023-05-10T06:57:10;15.20;99.90
6792;DHT22;3433;48.730;9.108;2023-05-10T06:59:37;15.10;99.90
6792;DHT22;3433;48.730;9.108;2023-05-10T07:02:05;15.10;99.90
6792;DHT22;3433;48.730;9.108;2023-05-10T07:04:32;15.10;99.90
6792;DHT22;3433;48.730;9.108;2023-05-10T07:07:01;15.00;99.90
6792;DHT22;3433;48.730;9.108;2023-05-10T07:09:28;15.10;99.90
6792;DHT22;3433;48.730;9.108;2023-05-10T07:11:56;15.10;99.90
6792;DHT22;3433;48.730;9.108;2023-05-10T07:14:23;15.00;99.90
6792;DHT22;3433;48.730;9.108;2023-05-10T07:16:50;15.10;99.90
6792;DHT22;3433;48.730;9.108;2023-05-10T07:19:17;15.10;99.90
6792;DHT22;3433;48.730;9.108;2023-05-10T07:21:45;15.10;99.90
6792;DHT22;3433;48.730;9.108;2023-05-10T07:24:13;15.20;99.90
6792;DHT22;3433;48.730;9.108;2023-05-10T07:26:41;15.20;99.90
6792;DHT22;3433;48.730;9.108;2023-05-10T07:29:11;15.30;99.90
6792;DHT22;3433;48.730;9.108;2023-05-10T07:31:38;15.30;99.90
6792;DHT22;3433;48.730;9.108;2023-05-10T07:34:07;15.40;99.90
6792;DHT22;3433;48.730;9.108;2023-05-10T07:36:34;15.50;99.90
6792;DHT22;3433;48.730;9.108;2023-05-10T07:39:01;15.50;99.90
6792;DHT22;3433;48.730;9.108;2023-05-10T07:41:30;15.50;99.90
6792;DHT22;3433;48.730;9.108;2023-05-10T07:43:57;15.50;99.90
6792;DHT22;3433;48.730;9.108;2023-05-10T07:46:23;15.50;99.90
6792;DHT22;3433;48.730;9.108;2023-05-10T07:48:56;15.50;99.90
6792;DHT22;3433;48.730;9.108;2023-05-10T07:51:25;15.50;99.90
6792;DHT22;3433;48.730;9.108;2023-05-10T07:53:56;15.50;99.90
6792;DHT22;3433;48.730;9.108;2023-05-10T07:56:35;15.50;99.90
6792;DHT22;3433;48.730;9.108;2023-05-10T07:59:03;15.50;99.90
6792;DHT22;3433;48.730;9.108;2023-05-10T08:01:33;15.50;99.90
6792;DHT22;3433;48.730;9.108;2023-05-10T08:04:01;15.60;99.90
6792;DHT22;3433;48.730;9.108;2023-05-10T08:06:49;15.60;99.90
6792;DHT22;3433;48.730;9.108;2023-05-10T08:09:18;15.60;99.90
6792;DHT22;3433;48.730;9.108;2023-05-10T08:11:52;15.60;99.90
6792;DHT22;3433;48.730;9.108;2023-05-10T08:14:20;15.70;99.90
6792;DHT22;3433;48.730;9.108;2023-05-10T08:16:49;15.70;99.90
6792;DHT22;3433;48.730;9.108;2023-05-10T08:19:16;15.80;99.90
6792;DHT22;3433;48.730;9.108;2023-05-10T08:21:45;15.80;99.90
6792;DHT22;3433;48.730;9.108;2023-05-10T08:24:12;15.70;99.90
6792;DHT22;3433;48.730;9.108;2023-05-10T08:26:38;15.60;99.90
6792;DHT22;3433;48.730;9.108;2023-05-10T08:29:07;15.60;99.90
6792;DHT22;3433;48.730;9.108;2023-05-10T08:31:34;15.70;99.90
6792;DHT22;3433;48.730;9.108;2023-05-10T08:34:01;15.70;99.90
6792;DHT22;3433;48.730;9.108;2023-05-10T08:36:28;15.60;99.90
6792;DHT22;3433;48.730;9.108;2023-05-10T08:38:56;15.60;99.90
6792;DHT22;3433;48.730;9.108;2023-05-10T08:41:39;15.70;99.90
6792;DHT22;3433;48.730;9.108;2023-05-10T08:44:08;15.70;99.90
6792;DHT22;3433;48.730;9.108;2023-05-10T08:46:37;15.80;99.90
6792;DHT22;3433;48.730;9.108;2023-05-10T08:49:06;15.90;99.90
6792;DHT22;3433;48.730;9.108;2023-05-10T08:51:45;15.90;99.90
6792;DHT22;3433;48.730;9.108;2023-05-10T08:54:16;15.80;99.90
6792;DHT22;3433;48.730;9.108;2023-05-10T08:56:43;15.90;99.90
6792;DHT22;3433;48.730;9.108;2023-05-10T08:59:12;15.90;99.90
6792;DHT22;3433;48.730;9.108;2023-05-10T09:01:40;15.90;99.90
6792;DHT22;3433;48.730;9.108;2023-05-10T09:04:09;16.00;99.90
6792;DHT22;3433;48.730;9.108;2023-05-10T09:06:37;16.00;99.90
6792;DHT22;3433;48.730;9.108;2023-05-10T09:09:05;16.00;99.90
6792;DHT22;3433;48.730;9.108;2023-05-10T09:11:32;16.10;99.90
6792;DHT22;3433;48.730;9.108;2023-05-10T09:13:58;15.90;99.90
6792;DHT22;3433;48.730;9.108;2023-05-10T09:16:27;16.00;99.90
6792;DHT22;3433;48.730;9.108;2023-05-10T09:18:54;16.00;99.90
6792;DHT22;3433;48.730;9.108;2023-05-10T09:21:21;16.00;99.90
6792;DHT22;3433;48.730;9.108;2023-05-10T09:23:48;15.90;99.90
6792;DHT22;3433;48.730;9.108;2023-05-10T09:26:22;15.90;99.90
6792;DHT22;3433;48.730;9.108;2023-05-10T09:28:53;15.90;99.90
6792;DHT22;3433;48.730;9.108;2023-05-10T09:35:21;15.90;99.90
6792;DHT22;3433;48.730;9.108;2023-05-10T09:38:00;16.00;99.90
6792;DHT22;3433;48.730;9.108;2023-05-10T09:40:36;16.10;99.90
6792;DHT22;3433;48.730;9.108;2023-05-10T09:43:31;16.10;99.90
6792;DHT22;3433;48.730;9.108;2023-05-10T09:50:12;16.30;99.90
6792;DHT22;3433;48.730;9.108;2023-05-10T10:00:20;16.40;99.90
6792;DHT22;3433;48.730;9.108;2023-05-10T10:04:29;16.60;99.90
6792;DHT22;3433;48.730;9.108;2023-05-10T10:10:03;16.90;99.90
6792;DHT22;3433;48.730;9.108;2023-05-10T10:12:30;16.90;99.90
6792;DHT22;3433;48.730;9.108;2023-05-10T10:14:59;16.90;99.90
6792;DHT22;3433;48.730;9.108;2023-05-10T10:17:36;16.80;99.90
6792;DHT22;3433;48.730;9.108;2023-05-10T10:20:06;16.70;99.90
6792;DHT22;3433;48.730;9.108;2023-05-10T10:22:42;16.90;99.90
6792;DHT22;3433;48.730;9.108;2023-05-10T10:25:30;16.80;99.90
6792;DHT22;3433;48.730;9.108;2023-05-10T10:28:08;16.90;99.90
6792;DHT22;3433;48.730;9.108;2023-05-10T10:30:42;17.00;99.90
6792;DHT22;3433;48.730;9.108;2023-05-10T10:33:43;17.10;99.90
6792;DHT22;3433;48.730;9.108;2023-05-10T10:36:25;17.40;99.90
6792;DHT22;3433;48.730;9.108;2023-05-10T10:39:00;17.50;99.90
6792;DHT22;3433;48.730;9.108;2023-05-10T10:41:37;17.50;99.90
6792;DHT22;3433;48.730;9.108;2023-05-10T10:44:25;17.60;99.90
6792;DHT22;3433;48.730;9.108;2023-05-10T10:47:03;17.40;99.90
6792;DHT22;3433;48.730;9.108;2023-05-10T10:49:32;17.60;99.90
6792;DHT22;3433;48.730;9.108;2023-05-10T10:52:24;17.60;99.90
6792;DHT22;3433;48.730;9.108;2023-05-10T10:54:59;17.50;99.90
6792;DHT22;3433;48.730;9.108;2023-05-10T10:57:31;17.40;99.90
6792;DHT22;3433;48.730;9.108;2023-05-10T11:00:27;17.50;99.90
6792;DHT22;3433;48.730;9.108;2023-05-10T11:02:58;17.50;99.90
6792;DHT22;3433;48.730;9.108;2023-05-10T11:05:43;17.50;99.90
6792;DHT22;3433;48.730;9.108;2023-05-10T11:08:17;17.30;99.90
6792;DHT22;3433;48.730;9.108;2023-05-10T11:11:04;16.90;99.90
6792;DHT22;3433;48.730;9.108;2023-05-10T11:13:38;16.80;99.90
6792;DHT22;3433;48.730;9.108;2023-05-10T11:16:24;16.70;99.90
6792;DHT22;3433;48.730;9.108;2023-05-10T11:18:58;16.70;99.90
6792;DHT22;3433;48.730;9.108;2023-05-10T11:21:25;16.70;99.90
6792;DHT22;3433;48.730;9.108;2023-05-10T11:23:53;16.60;99.90
6792;DHT22;3433;48.730;9.108;2023-05-10T11:26:23;16.60;99.90
6792;DHT22;3433;48.730;9.108;2023-05-10T11:28:53;16.50;99.90
6792;DHT22;3433;48.730;9.108;2023-05-10T11:31:22;16.60;99.90
6792;DHT22;3433;48.730;9.108;2023-05-10T11:33:51;16.60;99.90
6792;DHT22;3433;48.730;9.108;2023-05-10T11:36:19;16.60;99.90
6792;DHT22;3433;48.730;9.108;2023-05-10T11:38:47;16.70;99.90
6792;DHT22;3433;48.730;9.108;2023-05-10T11:41:18;16.60;99.90
6792;DHT22;3433;48.730;9.108;2023-05-10T11:43:49;16.60;99.90
6792;DHT22;3433;48.730;9.108;2023-05-10T11:46:21;16.60;99.90
6792;DHT22;3433;48.730;9.108;2023-05-10T11:48:50;16.50;99.90
6792;DHT22;3433;48.730;9.108;2023-05-10T11:51:20;16.30;99.90
6792;DHT22;3433;48.730;9.108;2023-05-10T11:53:48;16.40;99.90
6792;DHT22;3433;48.730;9.108;2023-05-10T11:56:19;16.30;99.90
6792;DHT22;3433;48.730;9.108;2023-05-10T11:58:52;16.40;99.90
6792;DHT22;3433;48.730;9.108;2023-05-10T12:01:21;16.60;99.90
6792;DHT22;3433;48.730;9.108;2023-05-10T12:03:49;16.80;99.90
6792;DHT22;3433;48.730;9.108;2023-05-10T12:06:20;16.90;99.90
6792;DHT22;3433;48.730;9.108;2023-05-10T12:08:48;17.00;99.90
6792;DHT22;3433;48.730;9.108;2023-05-10T12:11:18;17.20;99.90
6792;DHT22;3433;48.730;9.108;2023-05-10T12:13:46;17.30;99.90
6792;DHT22;3433;48.730;9.108;2023-05-10T12:16:18;17.30;99.90
6792;DHT22;3433;48.730;9.108;2023-05-10T12:18:49;17.30;99.90
6792;DHT22;3433;48.730;9.108;2023-05-10T12:21:17;17.20;99.90
6792;DHT22;3433;48.730;9.108;2023-05-10T12:23:45;17.20;99.90
6792;DHT22;3433;48.730;9.108;2023-05-10T12:26:13;17.10;99.90
6792;DHT22;3433;48.730;9.108;2023-05-10T12:28:44;17.10;99.90
6792;DHT22;3433;48.730;9.108;2023-05-10T12:31:17;17.20;99.90
6792;DHT22;3433;48.730;9.108;2023-05-10T12:33:45;17.20;99.90
6792;DHT22;3433;48.730;9.108;2023-05-10T12:36:15;17.20;99.90
6792;DHT22;3433;48.730;9.108;2023-05-10T12:38:44;17.10;99.90
6792;DHT22;3433;48.730;9.108;2023-05-10T12:41:17;17.00;99.90
6792;DHT22;3433;48.730;9.108;2023-05-10T12:43:44;17.00;99.90
6792;DHT22;3433;48.730;9.108;2023-05-10T12:46:14;16.90;99.90
6792;DHT22;3433;48.730;9.108;2023-05-10T12:48:42;16.90;99.90
6792;DHT22;3433;48.730;9.108;2023-05-10T12:51:09;16.90;99.90
6792;DHT22;3433;48.730;9.108;2023-05-10T12:53:39;16.90;99.90
6792;DHT22;3433;48.730;9.108;2023-05-10T12:56:07;16.90;99.90
6792;DHT22;3433;48.730;9.108;2023-05-10T12:58:34;16.90;99.90
6792;DHT22;3433;48.730;9.108;2023-05-10T13:01:01;16.90;99.90
6792;DHT22;3433;48.730;9.108;2023-05-10T13:03:28;16.90;99.90
6792;DHT22;3433;48.730;9.108;2023-05-10T13:05:55;17.00;99.90
6792;DHT22;3433;48.730;9.108;2023-05-10T13:08:22;17.00;99.90
6792;DHT22;3433;48.730;9.108;2023-05-10T13:10:50;16.90;99.90
6792;DHT22;3433;48.730;9.108;2023-05-10T13:13:17;17.00;99.90
6792;DHT22;3433;48.730;9.108;2023-05-10T13:15:44;17.10;99.90
6792;DHT22;3433;48.730;9.108;2023-05-10T13:18:10;17.20;99.90
6792;DHT22;3433;48.730;9.108;2023-05-10T13:20:37;17.20;99.90
6792;DHT22;3433;48.730;9.108;2023-05-10T13:23:04;17.30;99.90
6792;DHT22;3433;48.730;9.108;2023-05-10T13:25:31;17.20;99.90
6792;DHT22;3433;48.730;9.108;2023-05-10T13:28:01;17.40;99.90
6792;DHT22;3433;48.730;9.108;2023-05-10T13:30:28;17.40;99.90
6792;DHT22;3433;48.730;9.108;2023-05-10T13:32:55;17.40;99.90
6792;DHT22;3433;48.730;9.108;2023-05-10T13:35:22;17.40;99.90
6792;DHT22;3433;48.730;9.108;2023-05-10T13:37:49;17.20;99.90
6792;DHT22;3433;48.730;9.108;2023-05-10T13:40:18;17.40;99.90
6792;DHT22;3433;48.730;9.108;2023-05-10T13:42:45;17.40;99.90
6792;DHT22;3433;48.730;9.108;2023-05-10T13:45:14;17.60;99.90
6792;DHT22;3433;48.730;9.108;2023-05-10T13:47:41;17.70;99.90
6792;DHT22;3433;48.730;9.108;2023-05-10T13:50:08;17.80;99.90
6792;DHT22;3433;48.730;9.108;2023-05-10T13:52:35;17.70;99.90
6792;DHT22;3433;48.730;9.108;2023-05-10T13:55:03;17.80;99.90
6792;DHT22;3433;48.730;9.108;2023-05-10T13:57:30;17.70;99.90
6792;DHT22;3433;48.730;9.108;2023-05-10T13:59:57;17.70;99.90
6792;DHT22;3433;48.730;9.108;2023-05-10T14:02:25;17.80;99.90
6792;DHT22;3433;48.730;9.108;2023-05-10T14:04:53;17.50;99.90
6792;DHT22;3433;48.730;9.108;2023-05-10T14:07:19;17.50;99.90
6792;DHT22;3433;48.730;9.108;2023-05-10T14:09:47;17.60;99.90
6792;DHT22;3433;48.730;9.108;2023-05-10T14:12:14;17.60;99.90
6792;DHT22;3433;48.730;9.108;2023-05-10T14:14:41;17.50;99.90
6792;DHT22;3433;48.730;9.108;2023-05-10T14:17:08;17.70;99.90
6792;DHT22;3433;48.730;9.108;2023-05-10T14:19:36;17.60;99.90
6792;DHT22;3433;48.730;9.108;2023-05-10T14:22:04;17.50;99.90
6792;DHT22;3433;48.730;9.108;2023-05-10T14:24:31;17.50;99.90
6792;DHT22;3433;48.730;9.108;2023-05-10T14:26:57;17.60;99.90
6792;DHT22;3433;48.730;9.108;2023-05-10T14:29:24;17.60;99.90
6792;DHT22;3433;48.730;9.108;2023-05-10T14:31:51;17.50;99.90
6792;DHT22;3433;48.730;9.108;2023-05-10T14:34:18;17.50;99.90
6792;DHT22;3433;48.730;9.108;2023-05-10T14:36:46;17.50;99.90
6792;DHT22;3433;48.730;9.108;2023-05-10T14:39:16;17.60;99.90
6792;DHT22;3433;48.730;9.108;2023-05-10T14:41:43;17.60;99.90
6792;DHT22;3433;48.730;9.108;2023-05-10T14:44:11;17.50;99.90
6792;DHT22;3433;48.730;9.108;2023-05-10T14:46:38;17.40;99.90
6792;DHT22;3433;48.730;9.108;2023-05-10T14:49:05;17.40;99.90
6792;DHT22;3433;48.730;9.108;2023-05-10T14:51:31;17.30;99.90
6792;DHT22;3433;48.730;9.108;2023-05-10T14:54:00;17.40;99.90
6792;DHT22;3433;48.730;9.108;2023-05-10T14:56:27;17.30;99.90
6792;DHT22;3433;48.730;9.108;2023-05-10T14:58:54;17.20;99.90
6792;DHT22;3433;48.730;9.108;2023-05-10T15:01:21;17.30;99.90
6792;DHT22;3433;48.730;9.108;2023-05-10T15:03:48;17.20;99.90
6792;DHT22;3433;48.730;9.108;2023-05-10T15:06:15;17.40;99.90
6792;DHT22;3433;48.730;9.108;2023-05-10T15:08:42;17.40;99.90
6792;DHT22;3433;48.730;9.108;2023-05-10T15:11:10;17.40;99.90
6792;DHT22;3433;48.730;9.108;2023-05-10T15:13:40;17.40;99.90
6792;DHT22;3433;48.730;9.108;2023-05-10T15:16:07;17.50;99.90
6792;DHT22;3433;48.730;9.108;2023-05-10T15:18:34;17.50;99.90
6792;DHT22;3433;48.730;9.108;2023-05-10T15:21:01;17.60;99.90
6792;DHT22;3433;48.730;9.108;2023-05-10T15:23:28;17.80;99.90
6792;DHT22;3433;48.730;9.108;2023-05-10T15:25:55;17.80;99.90
6792;DHT22;3433;48.730;9.108;2023-05-10T15:28:24;17.80;99.90
6792;DHT22;3433;48.730;9.108;2023-05-10T15:30:50;17.70;99.90
6792;DHT22;3433;48.730;9.108;2023-05-10T15:33:18;17.90;99.90
6792;DHT22;3433;48.730;9.108;2023-05-10T15:35:45;17.90;99.90
6792;DHT22;3433;48.730;9.108;2023-05-10T15:38:12;17.70;99.90
6792;DHT22;3433;48.730;9.108;2023-05-10T15:40:38;17.80;99.90
6792;DHT22;3433;48.730;9.108;2023-05-10T15:43:05;17.70;99.90
6792;DHT22;3433;48.730;9.108;2023-05-10T15:45:34;17.80;99.90
6792;DHT22;3433;48.730;9.108;2023-05-10T15:48:01;17.70;99.90
6792;DHT22;3433;48.730;9.108;2023-05-10T15:50:28;17.70;99.90
6792;DHT22;3433;48.730;9.108;2023-05-10T15:52:55;17.80;99.90
6792;DHT22;3433;48.730;9.108;2023-05-10T15:55:21;17.70;99.90
6792;DHT22;3433;48.730;9.108;2023-05-10T15:57:48;17.60;99.90
6792;DHT22;3433;48.730;9.108;2023-05-10T16:00:18;17.60;99.90
6792;DHT22;3433;48.730;9.108;2023-05-10T16:02:47;17.70;99.90
6792;DHT22;3433;48.730;9.108;2023-05-10T16:05:14;17.70;99.90
6792;DHT22;3433;48.730;9.108;2023-05-10T16:07:42;17.60;99.90
6792;DHT22;3433;48.730;9.108;2023-05-10T16:10:10;17.60;99.90
6792;DHT22;3433;48.730;9.108;2023-05-10T16:12:37;17.50;99.90
6792;DHT22;3433;48.730;9.108;2023-05-10T16:15:05;17.60;99.90
6792;DHT22;3433;48.730;9.108;2023-05-10T16:17:32;17.60;99.90
6792;DHT22;3433;48.730;9.108;2023-05-10T16:20:00;17.50;99.90
6792;DHT22;3433;48.730;9.108;2023-05-10T16:22:27;17.70;99.90
6792;DHT22;3433;48.730;9.108;2023-05-10T16:24:55;17.40;99.90
6792;DHT22;3433;48.730;9.108;2023-05-10T16:27:22;17.40;99.90
6792;DHT22;3433;48.730;9.108;2023-05-10T16:29:49;17.40;99.90
6792;DHT22;3433;48.730;9.108;2023-05-10T16:32:17;17.30;99.90
6792;DHT22;3433;48.730;9.108;2023-05-10T16:34:44;17.30;99.90
6792;DHT22;3433;48.730;9.108;2023-05-10T16:37:12;17.20;99.90
6792;DHT22;3433;48.730;9.108;2023-05-10T16:39:39;17.20;99.90
6792;DHT22;3433;48.730;9.108;2023-05-10T16:42:06;17.10;99.90
6792;DHT22;3433;48.730;9.108;2023-05-10T16:44:33;17.00;99.90
6792;DHT22;3433;48.730;9.108;2023-05-10T16:47:00;17.10;99.90